createdAt,value
2022-11-25T12:12:06.173Z,122.38
2022-11-25T12:22:46.294Z,131.98
2022-11-25T12:30:30.435Z,125.88
2022-11-25T12:33:57.436Z,126.28
2022-11-25T12:37:14.827Z,122.00
2022-11-25T12:40:30.653Z,116.82
2022-11-25T12:43:41.789Z,127.35
2022-11-25T12:46:30.944Z,138.18
2022-11-25T12:49:21.644Z,146.88
2022-11-25T12:52:29.724Z,149.20
2022-11-25T12:55:24.321Z,133.10
2022-11-25T12:59:06.493Z,112.85
2022-11-25T13:01:59.100Z,112.30
2022-11-25T13:05:07.620Z,160.00
2022-11-25T13:07:53.610Z,130.18
2022-11-25T13:10:42.375Z,127.45
2022-11-25T13:13:47.508Z,152.10
2022-11-25T13:16:22.457Z,145.90
2022-11-25T13:18:54.887Z,117.28
2022-11-25T13:21:28.567Z,117.53
2022-11-25T13:24:00.884Z,99.55
2022-11-25T13:26:53.402Z,127.18
2022-11-25T13:30:09.888Z,114.30
2022-11-25T13:32:42.904Z,135.23
2022-11-25T13:35:41.630Z,109.30
2022-11-25T13:38:38.216Z,131.05
2022-11-25T13:41:24.800Z,130.23
2022-11-25T13:44:07.625Z,123.97
2022-11-25T13:46:41.257Z,120.50
2022-11-25T13:49:24.225Z,121.45
2022-11-25T13:51:57.917Z,111.45
2022-11-25T13:54:40.609Z,112.95
2022-11-25T13:57:25.083Z,145.80
2022-11-25T13:59:57.998Z,134.82
2022-11-25T14:02:42.112Z,134.38
2022-11-25T14:05:41.937Z,134.43
2022-11-25T14:08:31.055Z,151.13
2022-11-25T14:11:21.764Z,132.18
2022-11-25T14:14:02.258Z,130.57
2022-11-25T14:16:46.821Z,131.63
2022-11-25T14:19:51.234Z,154.48
2022-11-25T14:22:40.101Z,109.60
2022-11-25T14:25:22.553Z,119.05
2022-11-25T14:28:02.362Z,136.70
2022-11-25T14:30:32.828Z,134.88
2022-11-25T14:33:04.877Z,140.70
2022-11-25T14:35:43.711Z,138.38
2022-11-25T14:38:20.477Z,129.25
2022-11-25T14:40:54.916Z,146.60
2022-11-25T14:43:26.374Z,144.90
2022-11-25T14:46:10.818Z,139.95
2022-11-25T14:48:39.789Z,122.38
2022-11-25T14:51:10.017Z,136.50
2022-11-25T14:53:47.925Z,152.48
2022-11-25T14:56:22.425Z,163.68
2022-11-25T14:58:53.091Z,160.25
2022-11-25T15:01:24.346Z,167.20
2022-11-25T15:04:02.797Z,145.40
2022-11-25T15:06:35.688Z,166.85
2022-11-25T15:09:21.882Z,179.35
2022-11-25T15:11:54.210Z,145.43
2022-11-25T15:14:27.792Z,140.57
2022-11-25T15:16:57.513Z,147.18
2022-11-25T15:19:33.567Z,136.50
2022-11-25T15:25:09.612Z,171.02
2022-11-25T15:27:45.723Z,112.60
2022-11-25T15:30:22.518Z,142.98
2022-11-25T15:32:51.999Z,144.00
2022-11-25T15:35:22.515Z,138.43
2022-11-25T15:37:51.206Z,145.43
2022-11-25T15:40:36.752Z,158.43
2022-11-25T15:43:09.015Z,155.52
2022-11-25T15:45:48.547Z,132.70
2022-11-25T15:48:19.675Z,141.15
2022-11-25T15:50:48.145Z,149.45
2022-11-25T15:53:31.681Z,141.05
2022-11-25T15:56:03.873Z,145.23
2022-11-25T15:58:32.292Z,131.07
2022-11-25T16:01:06.034Z,123.07
2022-11-25T16:03:35.915Z,144.40
2022-11-25T16:06:19.657Z,139.38
2022-11-25T16:08:54.682Z,145.20
2022-11-25T16:11:26.097Z,147.25
2022-11-25T16:13:55.528Z,137.85
2022-11-25T16:16:29.319Z,154.98
2022-11-25T16:19:19.144Z,128.48
2022-11-25T16:22:01.191Z,140.65
2022-11-25T16:24:42.250Z,157.35
2022-11-25T16:27:24.476Z,143.50
2022-11-25T16:29:56.404Z,138.75
2022-11-25T16:32:27.221Z,138.27
2022-11-25T16:34:57.898Z,144.48
2022-11-25T16:37:26.486Z,144.65
2022-11-25T16:39:54.888Z,150.15
2022-11-25T16:42:25.014Z,138.15
2022-11-25T16:44:54.201Z,164.55
2022-11-25T16:47:24.594Z,116.65
2022-11-25T16:49:53.512Z,152.52
2022-11-25T16:52:21.991Z,156.85
2022-11-25T16:54:53.844Z,140.98
2022-11-25T16:57:25.704Z,159.57
2022-11-25T16:59:58.997Z,169.70
2022-11-25T17:02:28.192Z,159.95
2022-11-25T17:05:16.817Z,170.63
2022-11-25T17:07:45.877Z,157.93
2022-11-25T17:10:15.315Z,142.07
2022-11-25T17:12:50.883Z,164.90
2022-11-25T17:15:26.011Z,138.57
2022-11-25T17:17:55.004Z,140.07
2022-11-25T17:20:25.477Z,154.20
2022-11-25T17:23:13.899Z,139.63
2022-11-25T17:25:44.457Z,161.15
2022-11-25T17:28:17.836Z,151.95
2022-11-25T17:30:50.332Z,154.15
2022-11-25T17:33:23.480Z,187.98
2022-11-25T17:35:55.093Z,174.15
2022-11-25T17:38:24.406Z,163.20
2022-11-25T17:40:56.037Z,163.65
2022-11-25T17:43:24.816Z,167.48
2022-11-25T17:45:54.863Z,145.52
2022-11-25T17:48:23.380Z,150.35
2022-11-25T17:50:55.857Z,142.88
2022-11-25T17:53:24.596Z,147.60
2022-11-25T17:55:54.113Z,156.05
2022-11-25T17:58:22.705Z,161.55
2022-11-25T18:00:54.166Z,190.75
2022-11-25T18:03:24.714Z,158.60
2022-11-25T18:05:53.688Z,156.38
2022-11-25T18:08:22.448Z,163.30
2022-11-25T18:10:53.879Z,168.93
2022-11-25T18:13:22.554Z,174.15
2022-11-25T18:15:56.223Z,181.73
2022-11-25T18:18:32.403Z,182.63
2022-11-25T18:21:01.207Z,176.57
2022-11-25T18:23:32.727Z,163.10
2022-11-25T18:26:03.914Z,177.40
2022-11-25T18:28:36.899Z,175.07
2022-11-25T18:31:07.894Z,173.70
2022-11-25T18:33:44.864Z,189.35
2022-11-25T18:36:15.445Z,175.75
2022-11-25T18:38:45.684Z,183.02
2022-11-25T18:41:21.341Z,168.63
2022-11-25T18:43:50.209Z,164.02
2022-11-25T18:46:22.075Z,179.35
2022-11-25T18:49:12.431Z,198.05
2022-11-25T18:51:41.283Z,183.80
2022-11-25T18:54:10.505Z,206.65
2022-11-25T18:56:42.359Z,222.73
2022-11-25T18:59:17.248Z,205.20
2022-11-25T19:01:49.862Z,197.23
2022-11-25T19:04:29.321Z,193.32
2022-11-25T19:06:58.286Z,201.38
2022-11-25T19:09:27.434Z,211.25
2022-11-25T19:11:57.372Z,201.15
2022-11-25T19:14:34.481Z,236.18
2022-11-25T19:17:08.102Z,202.63
2022-11-25T19:19:41.548Z,207.95
2022-11-25T19:22:12.644Z,204.85
2022-11-25T19:24:41.454Z,173.07
2022-11-25T19:27:17.707Z,186.15
2022-11-25T19:29:54.950Z,210.50
2022-11-25T19:32:26.003Z,228.93
2022-11-25T19:35:03.528Z,227.10
2022-11-25T19:37:32.453Z,205.20
2022-11-25T19:40:02.939Z,210.35
2022-11-25T19:42:31.890Z,227.38
2022-11-25T19:45:03.587Z,210.15
2022-11-25T19:47:54.201Z,243.75
2022-11-25T19:50:27.364Z,213.25
2022-11-25T19:52:57.246Z,216.60
2022-11-25T19:55:30.025Z,210.60
2022-11-25T19:58:02.997Z,249.05
2022-11-25T20:00:32.005Z,247.82
2022-11-25T20:03:02.424Z,227.35
2022-11-25T20:05:35.462Z,230.57
2022-11-25T20:08:07.516Z,197.40
2022-11-25T20:10:36.206Z,228.70
2022-11-25T20:13:08.716Z,282.33
2022-11-25T20:15:39.818Z,200.73
2022-11-25T20:18:12.605Z,287.35
2022-11-25T20:21:03.113Z,218.80
2022-11-25T20:23:43.583Z,261.88
2022-11-25T20:26:18.749Z,217.43
2022-11-25T20:28:47.571Z,242.25
2022-11-25T20:31:16.588Z,257.33
2022-11-25T20:33:45.276Z,235.60
2022-11-25T20:36:21.372Z,197.45
2022-11-25T20:38:54.570Z,240.48
2022-11-25T20:41:28.066Z,267.65
2022-11-25T20:44:00.697Z,243.82
2022-11-25T20:46:30.409Z,293.33
2022-11-25T20:49:02.566Z,279.27
2022-11-25T20:51:32.579Z,315.23
2022-11-25T20:54:02.439Z,255.63
2022-11-25T20:56:31.665Z,240.48
2022-11-25T20:59:00.318Z,242.20
2022-11-25T21:01:30.573Z,310.33
2022-11-25T21:04:01.481Z,229.52
2022-11-25T21:06:37.934Z,334.75
2022-11-25T21:09:19.104Z,214.05
2022-11-25T21:11:47.767Z,252.20
2022-11-25T21:14:17.992Z,273.48
2022-11-25T21:16:46.758Z,265.65
2022-11-25T21:19:15.344Z,301.63
2022-11-25T21:21:48.649Z,213.07
2022-11-25T21:24:27.294Z,302.88
2022-11-25T21:26:56.249Z,258.63
2022-11-25T21:29:25.411Z,277.52
2022-11-25T21:31:53.970Z,293.98
2022-11-25T21:34:22.339Z,316.27
2022-11-25T21:36:54.096Z,362.85
2022-11-25T21:39:30.037Z,258.58
2022-11-25T21:42:02.237Z,291.15
2022-11-25T21:44:33.662Z,265.95
2022-11-25T21:47:03.040Z,257.67
2022-11-25T21:49:31.404Z,380.10
2022-11-25T21:52:30.223Z,396.45
2022-11-25T21:55:01.010Z,299.02
2022-11-25T21:57:30.550Z,297.48
2022-11-25T21:59:59.356Z,340.60
2022-11-25T22:02:28.013Z,256.52
2022-11-25T22:05:00.686Z,289.25
2022-11-25T22:07:30.936Z,345.85
2022-11-25T22:10:01.914Z,287.00
2022-11-25T22:12:34.352Z,302.58
2022-11-25T22:15:08.607Z,273.50
2022-11-25T22:17:37.285Z,440.38
2022-11-25T22:20:15.380Z,248.25
2022-11-25T22:22:44.234Z,258.50
2022-11-25T22:25:16.485Z,305.08
2022-11-25T22:27:45.377Z,262.20
2022-11-25T22:30:18.367Z,255.75
2022-11-25T22:32:48.373Z,315.23
2022-11-25T22:35:18.433Z,250.70
2022-11-25T22:37:51.985Z,314.13
2022-11-25T22:40:25.662Z,316.83
2022-11-25T22:42:56.103Z,279.95
2022-11-25T22:45:30.879Z,268.42
2022-11-25T22:48:01.872Z,288.38
2022-11-25T22:50:33.177Z,288.10
2022-11-25T22:53:02.291Z,262.20
2022-11-25T22:55:33.867Z,314.65
2022-11-25T22:58:04.768Z,258.13
2022-11-25T23:00:35.450Z,337.00
2022-11-25T23:03:07.626Z,314.85
2022-11-25T23:05:37.836Z,305.58
2022-11-25T23:08:13.039Z,318.45
2022-11-25T23:10:43.078Z,338.45
2022-11-25T23:13:11.830Z,334.73
2022-11-25T23:15:43.727Z,300.60
2022-11-25T23:18:17.041Z,274.90
2022-11-25T23:20:45.796Z,316.80
2022-11-25T23:23:19.589Z,339.90
2022-11-25T23:26:17.767Z,296.17
2022-11-25T23:28:48.069Z,281.25
2022-11-25T23:31:18.046Z,285.20
2022-11-25T23:33:49.112Z,277.40
2022-11-25T23:36:24.589Z,271.92
2022-11-25T23:38:55.905Z,295.00
2022-11-25T23:41:30.084Z,281.55
2022-11-25T23:44:03.322Z,278.00
2022-11-25T23:46:34.717Z,305.33
2022-11-25T23:49:05.190Z,297.95
2022-11-25T23:51:33.944Z,282.13
2022-11-25T23:54:02.869Z,288.50
2022-11-25T23:56:31.944Z,295.13
2022-11-25T23:59:01.912Z,281.85
